sensor_id;sensor_type;location;lat;lon;timestamp;pressure;altitude;pressure_sealevel;temperature;humidity
8061;BME280;4073;42.626;25.386;2023-04-30T00:02:15;96940.84;;;13.54;100.00
8061;BME280;4073;42.626;25.386;2023-04-30T00:04:40;96934.19;;;13.51;100.00
8061;BME280;4073;42.626;25.386;2023-04-30T00:07:05;96901.78;;;13.29;100.00
8061;BME280;4073;42.626;25.386;2023-04-30T00:09:31;96928.16;;;13.41;100.00
8061;BME280;4073;42.626;25.386;2023-04-30T00:11:56;96895.94;;;13.27;100.00
8061;BME280;4073;42.626;25.386;2023-04-30T00:14:22;96912.81;;;13.28;100.00
8061;BME280;4073;42.626;25.386;2023-04-30T00:16:47;96920.03;;;13.46;100.00
8061;BME280;4073;42.626;25.386;2023-04-30T00:19:13;96926.78;;;13.43;100.00
8061;BME280;4073;42.626;25.386;2023-04-30T00:21:38;96907.56;;;13.23;100.00
8061;BME280;4073;42.626;25.386;2023-04-30T00:24:04;96918.31;;;13.36;100.00
8061;BME280;4073;42.626;25.386;2023-04-30T00:26:30;96916.22;;;13.33;100.00
8061;BME280;4073;42.626;25.386;2023-04-30T00:28:55;96926.47;;;13.31;100.00
8061;BME280;4073;42.626;25.386;2023-04-30T00:31:22;96924.38;;;13.28;100.00
8061;BME280;4073;42.626;25.386;2023-04-30T00:33:48;96913.91;;;13.27;100.00
8061;BME280;4073;42.626;25.386;2023-04-30T00:36:13;96927.56;;;13.30;100.00
8061;BME280;4073;42.626;25.386;2023-04-30T00:38:39;96924.38;;;13.28;100.00
8061;BME280;4073;42.626;25.386;2023-04-30T00:41:04;96931.84;;;13.31;100.00
8061;BME280;4073;42.626;25.386;2023-04-30T00:43:30;96913.41;;;13.25;100.00
8061;BME280;4073;42.626;25.386;2023-04-30T00:45:55;96910.59;;;13.16;100.00
8061;BME280;4073;42.626;25.386;2023-04-30T00:48:23;96915.81;;;13.26;100.00
8061;BME280;4073;42.626;25.386;2023-04-30T00:50:49;96910.44;;;13.26;99.48
8061;BME280;4073;42.626;25.386;2023-04-30T00:53:15;96891.19;;;13.06;99.57
8061;BME280;4073;42.626;25.386;2023-04-30T00:55:43;96908.13;;;13.20;99.83
8061;BME280;4073;42.626;25.386;2023-04-30T00:58:08;96915.31;;;13.24;98.78
8061;BME280;4073;42.626;25.386;2023-04-30T01:00:34;96902.97;;;13.23;97.89
8061;BME280;4073;42.626;25.386;2023-04-30T01:03:00;96911.13;;;13.32;98.38
8061;BME280;4073;42.626;25.386;2023-04-30T01:05:25;96886.44;;;13.16;98.67
8061;BME280;4073;42.626;25.386;2023-04-30T01:07:52;96906.78;;;13.36;99.63
8061;BME280;4073;42.626;25.386;2023-04-30T01:10:20;96911.06;;;13.37;100.00
8061;BME280;4073;42.626;25.386;2023-04-30T01:13:09;96883.69;;;13.21;100.00
8061;BME280;4073;42.626;25.386;2023-04-30T01:16:01;96906.69;;;13.27;100.00
8061;BME280;4073;42.626;25.386;2023-04-30T01:18:49;96905.75;;;13.18;100.00
8061;BME280;4073;42.626;25.386;2023-04-30T01:21:17;96883.28;;;12.95;100.00
8061;BME280;4073;42.626;25.386;2023-04-30T01:29:26;96903.31;;;12.84;100.00
8061;BME280;4073;42.626;25.386;2023-04-30T01:31:51;96899.84;;;12.84;100.00
8061;BME280;4073;42.626;25.386;2023-04-30T01:34:17;96897.16;;;12.84;100.00
8061;BME280;4073;42.626;25.386;2023-04-30T01:36:52;96868.19;;;12.67;100.00
8061;BME280;4073;42.626;25.386;2023-04-30T01:42:05;96891.97;;;12.87;100.00
8061;BME280;4073;42.626;25.386;2023-04-30T01:44:37;96891.69;;;12.89;100.00
8061;BME280;4073;42.626;25.386;2023-04-30T01:47:06;96891.09;;;12.92;100.00
8061;BME280;4073;42.626;25.386;2023-04-30T01:50:08;96901.06;;;12.91;100.00
8061;BME280;4073;42.626;25.386;2023-04-30T01:52:52;96893.50;;;12.93;100.00
8061;BME280;4073;42.626;25.386;2023-04-30T01:55:42;96890.03;;;12.93;100.00
8061;BME280;4073;42.626;25.386;2023-04-30T01:58:12;96858.66;;;12.75;100.00
8061;BME280;4073;42.626;25.386;2023-04-30T02:00:39;96878.06;;;12.85;100.00
8061;BME280;4073;42.626;25.386;2023-04-30T02:03:05;96889.75;;;12.94;100.00
8061;BME280;4073;42.626;25.386;2023-04-30T02:05:30;96882.00;;;12.93;100.00
8061;BME280;4073;42.626;25.386;2023-04-30T02:07:56;96882.00;;;12.93;100.00
8061;BME280;4073;42.626;25.386;2023-04-30T02:10:23;96885.44;;;12.93;100.00
8061;BME280;4073;42.626;25.386;2023-04-30T02:12:49;96888.66;;;12.95;100.00
8061;BME280;4073;42.626;25.386;2023-04-30T02:15:15;96888.44;;;12.92;100.00
8061;BME280;4073;42.626;25.386;2023-04-30T02:17:41;96874.81;;;12.88;100.00
8061;BME280;4073;42.626;25.386;2023-04-30T02:20:07;96886.31;;;12.89;100.00
8061;BME280;4073;42.626;25.386;2023-04-30T02:22:33;96875.97;;;12.82;100.00
8061;BME280;4073;42.626;25.386;2023-04-30T02:24:59;96880.25;;;12.83;100.00
8061;BME280;4073;42.626;25.386;2023-04-30T02:27:25;96887.28;;;12.79;100.00
8061;BME280;4073;42.626;25.386;2023-04-30T02:29:52;96880.34;;;12.78;100.00
8061;BME280;4073;42.626;25.386;2023-04-30T02:32:18;96860.19;;;12.62;100.00
8061;BME280;4073;42.626;25.386;2023-04-30T02:34:43;96891.84;;;12.79;100.00
8061;BME280;4073;42.626;25.386;2023-04-30T02:37:09;96876.56;;;12.79;100.00
8061;BME280;4073;42.626;25.386;2023-04-30T02:39:35;96882.50;;;12.76;100.00
8061;BME280;4073;42.626;25.386;2023-04-30T02:42:00;96859.72;;;12.60;100.00
8061;BME280;4073;42.626;25.386;2023-04-30T02:44:26;96873.97;;;12.74;100.00
8061;BME280;4073;42.626;25.386;2023-04-30T02:46:51;96858.38;;;12.58;100.00
8061;BME280;4073;42.626;25.386;2023-04-30T02:49:17;96902.38;;;12.75;100.00
8061;BME280;4073;42.626;25.386;2023-04-30T02:51:42;96892.75;;;12.74;100.00
8061;BME280;4073;42.626;25.386;2023-04-30T02:54:08;96849.91;;;12.51;100.00
8061;BME280;4073;42.626;25.386;2023-04-30T02:56:33;96884.56;;;12.66;100.00
8061;BME280;4073;42.626;25.386;2023-04-30T02:58:59;96890.13;;;12.69;100.00
8061;BME280;4073;42.626;25.386;2023-04-30T03:01:25;96887.16;;;12.71;100.00
8061;BME280;4073;42.626;25.386;2023-04-30T03:03:50;96888.44;;;12.73;100.00
8061;BME280;4073;42.626;25.386;2023-04-30T03:06:16;96889.84;;;12.71;100.00
8061;BME280;4073;42.626;25.386;2023-04-30T03:08:41;96862.75;;;12.54;100.00
8061;BME280;4073;42.626;25.386;2023-04-30T03:11:07;96887.72;;;12.68;100.00
8061;BME280;4073;42.626;25.386;2023-04-30T03:13:32;96872.09;;;12.56;100.00
8061;BME280;4073;42.626;25.386;2023-04-30T03:16:02;96890.06;;;12.74;100.00
8061;BME280;4073;42.626;25.386;2023-04-30T03:18:31;96893.81;;;12.73;100.00
8061;BME280;4073;42.626;25.386;2023-04-30T03:20:56;96888.72;;;12.72;100.00
8061;BME280;4073;42.626;25.386;2023-04-30T03:23:23;96886.00;;;12.77;100.00
8061;BME280;4073;42.626;25.386;2023-04-30T03:25:49;96885.47;;;12.75;100.00
8061;BME280;4073;42.626;25.386;2023-04-30T03:28:14;96883.19;;;12.68;100.00
8061;BME280;4073;42.626;25.386;2023-04-30T03:30:40;96889.84;;;12.71;100.00
8061;BME280;4073;42.626;25.386;2023-04-30T03:33:06;96889.03;;;12.70;100.00
8061;BME280;4073;42.626;25.386;2023-04-30T03:35:32;96867.53;;;12.57;100.00
8061;BME280;4073;42.626;25.386;2023-04-30T03:37:58;96903.25;;;12.71;100.00
8061;BME280;4073;42.626;25.386;2023-04-30T03:40:23;96901.44;;;12.66;100.00
8061;BME280;4073;42.626;25.386;2023-04-30T03:42:49;96896.16;;;12.61;100.00
8061;BME280;4073;42.626;25.386;2023-04-30T03:45:14;96902.09;;;12.58;100.00
8061;BME280;4073;42.626;25.386;2023-04-30T03:47:41;96899.41;;;12.58;100.00
8061;BME280;4073;42.626;25.386;2023-04-30T03:50:07;96897.53;;;12.59;100.00
8061;BME280;4073;42.626;25.386;2023-04-30T03:52:33;96882.16;;;12.46;100.00
8061;BME280;4073;42.626;25.386;2023-04-30T03:54:58;96908.28;;;12.59;100.00
8061;BME280;4073;42.626;25.386;2023-04-30T03:57:24;96904.78;;;12.58;100.00
8061;BME280;4073;42.626;25.386;2023-04-30T03:59:50;96905.34;;;12.55;100.00
8061;BME280;4073;42.626;25.386;2023-04-30T04:02:15;96920.63;;;12.55;100.00
8061;BME280;4073;42.626;25.386;2023-04-30T04:04:41;96917.19;;;12.54;100.00
8061;BME280;4073;42.626;25.386;2023-04-30T04:07:07;96924.13;;;12.55;100.00
8061;BME280;4073;42.626;25.386;2023-04-30T04:09:34;96920.34;;;12.56;100.00
8061;BME280;4073;42.626;25.386;2023-04-30T04:11:59;96920.44;;;12.51;100.00
8061;BME280;4073;42.626;25.386;2023-04-30T04:14:25;96890.41;;;12.31;100.00
8061;BME280;4073;42.626;25.386;2023-04-30T04:16:51;96919.91;;;12.49;100.00
8061;BME280;4073;42.626;25.386;2023-04-30T04:19:16;96925.78;;;12.51;100.00
8061;BME280;4073;42.626;25.386;2023-04-30T04:21:42;96924.69;;;12.52;100.00
8061;BME280;4073;42.626;25.386;2023-04-30T04:24:07;96924.78;;;12.47;100.00
8061;BME280;4073;42.626;25.386;2023-04-30T04:26:34;96911.28;;;12.52;100.00
8061;BME280;4073;42.626;25.386;2023-04-30T04:29:01;96897.97;;;12.47;100.00
8061;BME280;4073;42.626;25.386;2023-04-30T04:31:27;96909.75;;;12.65;100.00
8061;BME280;4073;42.626;25.386;2023-04-30T04:33:52;96921.16;;;12.75;100.00
8061;BME280;4073;42.626;25.386;2023-04-30T04:36:23;96921.06;;;12.80;100.00
8061;BME280;4073;42.626;25.386;2023-04-30T04:38:48;96917.03;;;12.83;100.00
8061;BME280;4073;42.626;25.386;2023-04-30T04:41:14;96907.03;;;12.70;100.00
8061;BME280;4073;42.626;25.386;2023-04-30T04:43:39;96915.66;;;13.04;100.00
8061;BME280;4073;42.626;25.386;2023-04-30T04:46:05;96918.16;;;13.14;100.00
8061;BME280;4073;42.626;25.386;2023-04-30T04:48:33;96923.66;;;13.23;100.00
8061;BME280;4073;42.626;25.386;2023-04-30T04:50:58;96919.81;;;13.29;100.00
8061;BME280;4073;42.626;25.386;2023-04-30T04:53:24;96935.81;;;13.34;100.00
8061;BME280;4073;42.626;25.386;2023-04-30T04:55:49;96902.09;;;13.28;100.00
8061;BME280;4073;42.626;25.386;2023-04-30T04:58:15;96929.28;;;13.40;100.00
8061;BME280;4073;42.626;25.386;2023-04-30T05:00:40;96931.06;;;13.44;100.00
8061;BME280;4073;42.626;25.386;2023-04-30T05:03:05;96923.13;;;13.53;100.00
8061;BME280;4073;42.626;25.386;2023-04-30T05:05:31;96936.56;;;13.66;100.00
8061;BME280;4073;42.626;25.386;2023-04-30T05:07:56;96944.16;;;13.91;100.00
8061;BME280;4073;42.626;25.386;2023-04-30T05:10:22;96936.91;;;14.19;100.00
8061;BME280;4073;42.626;25.386;2023-04-30T05:12:47;96932.13;;;14.43;100.00
8061;BME280;4073;42.626;25.386;2023-04-30T05:15:13;96930.78;;;14.67;100.00
8061;BME280;4073;42.626;25.386;2023-04-30T05:17:38;96924.22;;;14.95;100.00
8061;BME280;4073;42.626;25.386;2023-04-30T05:20:04;96925.22;;;15.21;98.29
8061;BME280;4073;42.626;25.386;2023-04-30T05:22:31;96929.50;;;15.44;95.54
8061;BME280;4073;42.626;25.386;2023-04-30T05:24:57;96934.69;;;15.63;92.58
8061;BME280;4073;42.626;25.386;2023-04-30T05:27:22;96918.06;;;15.70;90.10
8061;BME280;4073;42.626;25.386;2023-04-30T05:29:48;96923.34;;;15.83;86.27
8061;BME280;4073;42.626;25.386;2023-04-30T05:32:13;96933.44;;;16.00;85.00
8061;BME280;4073;42.626;25.386;2023-04-30T05:34:39;96934.13;;;16.22;82.96
8061;BME280;4073;42.626;25.386;2023-04-30T05:37:04;96945.34;;;16.46;80.36
8061;BME280;4073;42.626;25.386;2023-04-30T05:39:30;96940.91;;;16.59;75.23
8061;BME280;4073;42.626;25.386;2023-04-30T05:41:55;96944.41;;;16.51;72.76
8061;BME280;4073;42.626;25.386;2023-04-30T05:44:20;96950.59;;;16.51;69.36
8061;BME280;4073;42.626;25.386;2023-04-30T05:46:46;96943.50;;;16.72;71.01
8061;BME280;4073;42.626;25.386;2023-04-30T05:49:11;96943.03;;;16.87;71.47
8061;BME280;4073;42.626;25.386;2023-04-30T05:51:37;96938.13;;;17.06;70.31
8061;BME280;4073;42.626;25.386;2023-04-30T05:54:02;96935.72;;;17.22;68.84
8061;BME280;4073;42.626;25.386;2023-04-30T05:56:28;96946.53;;;17.30;68.69
8061;BME280;4073;42.626;25.386;2023-04-30T05:58:53;96941.75;;;17.44;69.16
8061;BME280;4073;42.626;25.386;2023-04-30T06:01:19;96929.50;;;17.55;68.87
8061;BME280;4073;42.626;25.386;2023-04-30T06:03:45;96943.22;;;17.88;69.35
8061;BME280;4073;42.626;25.386;2023-04-30T06:06:11;96939.56;;;17.92;67.87
8061;BME280;4073;42.626;25.386;2023-04-30T06:08:36;96951.16;;;18.02;65.65
8061;BME280;4073;42.626;25.386;2023-04-30T06:11:02;96947.94;;;18.08;63.75
8061;BME280;4073;42.626;25.386;2023-04-30T06:13:30;96941.69;;;18.25;66.33
8061;BME280;4073;42.626;25.386;2023-04-30T06:15:56;96945.44;;;18.32;63.95
8061;BME280;4073;42.626;25.386;2023-04-30T06:18:22;96946.34;;;18.45;64.59
8061;BME280;4073;42.626;25.386;2023-04-30T06:20:47;96939.13;;;18.57;64.60
8061;BME280;4073;42.626;25.386;2023-04-30T06:23:12;96949.06;;;18.74;63.85
8061;BME280;4073;42.626;25.386;2023-04-30T06:25:38;96949.69;;;19.00;63.82
8061;BME280;4073;42.626;25.386;2023-04-30T06:28:22;96938.78;;;19.08;61.15
8061;BME280;4073;42.626;25.386;2023-04-30T06:30:49;96941.94;;;19.10;60.46
8061;BME280;4073;42.626;25.386;2023-04-30T06:33:15;96936.31;;;19.15;60.25
8061;BME280;4073;42.626;25.386;2023-04-30T06:35:40;96943.53;;;19.32;60.17
8061;BME280;4073;42.626;25.386;2023-04-30T06:38:06;96939.66;;;19.53;59.77
8061;BME280;4073;42.626;25.386;2023-04-30T06:40:32;96916.47;;;19.44;58.49
8061;BME280;4073;42.626;25.386;2023-04-30T06:42:57;96914.84;;;19.63;57.57
8061;BME280;4073;42.626;25.386;2023-04-30T06:45:23;96936.88;;;19.74;56.41
8061;BME280;4073;42.626;25.386;2023-04-30T06:47:48;96933.66;;;19.92;55.96
8061;BME280;4073;42.626;25.386;2023-04-30T06:50:14;96939.50;;;20.15;54.92
8061;BME280;4073;42.626;25.386;2023-04-30T06:52:40;96935.38;;;20.09;54.93
8061;BME280;4073;42.626;25.386;2023-04-30T06:55:05;96934.88;;;19.83;54.56
8061;BME280;4073;42.626;25.386;2023-04-30T06:57:31;96935.03;;;19.54;55.90
8061;BME280;4073;42.626;25.386;2023-04-30T06:59:57;96927.97;;;19.73;54.62
8061;BME280;4073;42.626;25.386;2023-04-30T07:02:22;96944.41;;;20.01;54.16
8061;BME280;4073;42.626;25.386;2023-04-30T07:04:48;96934.63;;;20.32;53.30
8061;BME280;4073;42.626;25.386;2023-04-30T07:07:13;96936.78;;;20.39;53.00
8061;BME280;4073;42.626;25.386;2023-04-30T07:09:39;96940.97;;;20.61;52.43
8061;BME280;4073;42.626;25.386;2023-04-30T07:12:05;96929.81;;;20.90;49.96
8061;BME280;4073;42.626;25.386;2023-04-30T07:14:31;96929.13;;;21.05;49.63
8061;BME280;4073;42.626;25.386;2023-04-30T07:16:56;96935.56;;;21.12;50.61
8061;BME280;4073;42.626;25.386;2023-04-30T07:19:22;96929.16;;;21.32;49.85
8061;BME280;4073;42.626;25.386;2023-04-30T07:21:48;96936.94;;;21.46;48.93
8061;BME280;4073;42.626;25.386;2023-04-30T07:24:13;96917.13;;;21.61;48.32
8061;BME280;4073;42.626;25.386;2023-04-30T07:26:39;96927.09;;;21.84;46.30
8061;BME280;4073;42.626;25.386;2023-04-30T07:29:05;96931.78;;;22.15;46.31
8061;BME280;4073;42.626;25.386;2023-04-30T07:31:31;96930.56;;;22.28;45.52
8061;BME280;4073;42.626;25.386;2023-04-30T07:33:57;96928.69;;;22.47;42.62
8061;BME280;4073;42.626;25.386;2023-04-30T07:36:23;96932.81;;;22.57;42.01
8061;BME280;4073;42.626;25.386;2023-04-30T07:38:48;96928.84;;;22.70;40.61
8061;BME280;4073;42.626;25.386;2023-04-30T07:41:14;96939.31;;;22.84;40.30
8061;BME280;4073;42.626;25.386;2023-04-30T07:43:39;96938.00;;;22.97;41.05
8061;BME280;4073;42.626;25.386;2023-04-30T07:46:05;96938.03;;;23.16;41.03
8061;BME280;4073;42.626;25.386;2023-04-30T07:48:31;96935.38;;;23.35;41.74
8061;BME280;4073;42.626;25.386;2023-04-30T07:50:56;96919.50;;;23.40;39.76
8061;BME280;4073;42.626;25.386;2023-04-30T07:53:22;96905.91;;;23.63;39.28
8061;BME280;4073;42.626;25.386;2023-04-30T07:55:48;96926.59;;;23.45;39.35
8061;BME280;4073;42.626;25.386;2023-04-30T07:58:13;96934.88;;;23.29;39.83
8061;BME280;4073;42.626;25.386;2023-04-30T08:00:39;96929.63;;;22.86;40.42
8061;BME280;4073;42.626;25.386;2023-04-30T08:03:04;96913.16;;;22.83;40.20
8061;BME280;4073;42.626;25.386;2023-04-30T08:05:29;96934.88;;;22.95;39.62
8061;BME280;4073;42.626;25.386;2023-04-30T08:07:55;96903.72;;;22.96;38.95
8061;BME280;4073;42.626;25.386;2023-04-30T08:10:21;96926.59;;;23.26;39.56
8061;BME280;4073;42.626;25.386;2023-04-30T08:12:46;96923.00;;;23.41;39.03
8061;BME280;4073;42.626;25.386;2023-04-30T08:15:12;96932.47;;;23.66;37.56
8061;BME280;4073;42.626;25.386;2023-04-30T08:17:37;96927.63;;;23.78;37.37
8061;BME280;4073;42.626;25.386;2023-04-30T08:20:03;96924.59;;;24.02;36.96
8061;BME280;4073;42.626;25.386;2023-04-30T08:22:29;96923.97;;;24.12;36.53
8061;BME280;4073;42.626;25.386;2023-04-30T08:24:55;96924.66;;;24.06;35.97
8061;BME280;4073;42.626;25.386;2023-04-30T08:27:21;96906.16;;;23.77;36.72
8061;BME280;4073;42.626;25.386;2023-04-30T08:29:46;96923.16;;;23.48;38.12
8061;BME280;4073;42.626;25.386;2023-04-30T08:32:12;96909.81;;;22.89;38.87
8061;BME280;4073;42.626;25.386;2023-04-30T08:34:37;96912.53;;;23.43;37.98
8061;BME280;4073;42.626;25.386;2023-04-30T08:37:05;96913.19;;;23.97;37.99
8061;BME280;4073;42.626;25.386;2023-04-30T08:39:31;96908.41;;;24.13;37.00
8061;BME280;4073;42.626;25.386;2023-04-30T08:42:00;96914.50;;;24.06;36.61
8061;BME280;4073;42.626;25.386;2023-04-30T08:44:28;96918.44;;;24.09;36.99
8061;BME280;4073;42.626;25.386;2023-04-30T08:46:55;96908.16;;;23.80;36.87
8061;BME280;4073;42.626;25.386;2023-04-30T08:49:21;96887.56;;;24.05;36.94
8061;BME280;4073;42.626;25.386;2023-04-30T08:51:47;96914.31;;;24.63;36.26
8061;BME280;4073;42.626;25.386;2023-04-30T08:54:13;96903.47;;;24.96;34.64
8061;BME280;4073;42.626;25.386;2023-04-30T08:56:39;96892.34;;;25.15;34.08
8061;BME280;4073;42.626;25.386;2023-04-30T08:59:06;96908.00;;;25.15;34.00
8061;BME280;4073;42.626;25.386;2023-04-30T09:01:33;96880.66;;;25.18;33.95
8061;BME280;4073;42.626;25.386;2023-04-30T09:03:59;96901.22;;;24.53;34.59
8061;BME280;4073;42.626;25.386;2023-04-30T09:06:24;96901.13;;;23.79;36.10
8061;BME280;4073;42.626;25.386;2023-04-30T09:08:51;96870.53;;;23.47;36.38
8061;BME280;4073;42.626;25.386;2023-04-30T09:11:26;96891.69;;;23.95;36.38
8061;BME280;4073;42.626;25.386;2023-04-30T09:13:56;96883.03;;;24.12;35.89
8061;BME280;4073;42.626;25.386;2023-04-30T09:16:23;96886.53;;;23.90;35.87
8061;BME280;4073;42.626;25.386;2023-04-30T09:18:49;96892.97;;;23.60;36.19
8061;BME280;4073;42.626;25.386;2023-04-30T09:21:15;96887.53;;;23.22;36.58
8061;BME280;4073;42.626;25.386;2023-04-30T09:24:06;96897.91;;;22.78;37.78
8061;BME280;4073;42.626;25.386;2023-04-30T09:26:37;96902.81;;;22.22;39.54
8061;BME280;4073;42.626;25.386;2023-04-30T09:29:03;96897.78;;;21.93;40.07
8061;BME280;4073;42.626;25.386;2023-04-30T09:31:36;96880.09;;;21.72;39.77
8061;BME280;4073;42.626;25.386;2023-04-30T09:34:02;96890.94;;;21.84;40.47
8061;BME280;4073;42.626;25.386;2023-04-30T09:36:28;96889.56;;;21.90;39.66
8061;BME280;4073;42.626;25.386;2023-04-30T09:38:54;96883.91;;;21.83;40.69
8061;BME280;4073;42.626;25.386;2023-04-30T09:41:27;96890.25;;;22.02;39.04
8061;BME280;4073;42.626;25.386;2023-04-30T09:43:54;96884.09;;;22.21;38.36
8061;BME280;4073;42.626;25.386;2023-04-30T09:46:21;96875.47;;;22.34;38.56
8061;BME280;4073;42.626;25.386;2023-04-30T09:48:55;96882.38;;;22.47;38.10
8061;BME280;4073;42.626;25.386;2023-04-30T09:51:21;96877.72;;;22.63;37.51
8061;BME280;4073;42.626;25.386;2023-04-30T09:53:47;96875.56;;;22.72;37.97
8061;BME280;4073;42.626;25.386;2023-04-30T09:56:14;96870.28;;;22.79;37.33
8061;BME280;4073;42.626;25.386;2023-04-30T09:58:43;96877.44;;;22.68;37.89
8061;BME280;4073;42.626;25.386;2023-04-30T10:01:14;96868.78;;;22.82;38.11
8061;BME280;4073;42.626;25.386;2023-04-30T10:03:41;96875.56;;;22.72;38.29
8061;BME280;4073;42.626;25.386;2023-04-30T10:06:07;96880.00;;;22.61;37.96
8061;BME280;4073;42.626;25.386;2023-04-30T10:08:42;96879.13;;;22.57;38.93
8061;BME280;4073;42.626;25.386;2023-04-30T10:11:09;96871.03;;;22.45;41.92
8061;BME280;4073;42.626;25.386;2023-04-30T10:13:45;96881.94;;;22.45;44.57
8061;BME280;4073;42.626;25.386;2023-04-30T10:18:49;96878.03;;;22.27;49.47
8061;BME280;4073;42.626;25.386;2023-04-30T10:21:16;96873.91;;;22.18;51.84
8061;BME280;4073;42.626;25.386;2023-04-30T10:23:43;96887.94;;;22.04;51.52
8061;BME280;4073;42.626;25.386;2023-04-30T10:26:10;96879.38;;;21.87;49.71
8061;BME280;4073;42.626;25.386;2023-04-30T10:28:38;96880.44;;;21.70;51.53
8061;BME280;4073;42.626;25.386;2023-04-30T10:31:06;96853.19;;;21.39;48.40
8061;BME280;4073;42.626;25.386;2023-04-30T10:36:44;96871.28;;;21.75;50.24
8061;BME280;4073;42.626;25.386;2023-04-30T10:39:14;96860.91;;;21.80;48.79
8061;BME280;4073;42.626;25.386;2023-04-30T10:41:44;96867.50;;;22.10;48.01
8061;BME280;4073;42.626;25.386;2023-04-30T10:44:11;96860.59;;;22.47;48.49
8061;BME280;4073;42.626;25.386;2023-04-30T10:46:37;96863.91;;;23.10;47.27
8061;BME280;4073;42.626;25.386;2023-04-30T10:49:03;96860.59;;;23.81;45.50
8061;BME280;4073;42.626;25.386;2023-04-30T10:51:50;96832.88;;;24.24;38.76
8061;BME280;4073;42.626;25.386;2023-04-30T10:54:27;96850.94;;;25.13;36.85
8061;BME280;4073;42.626;25.386;2023-04-30T10:57:07;96856.41;;;25.87;35.03
8061;BME280;4073;42.626;25.386;2023-04-30T10:59:34;96855.91;;;26.14;32.80
8061;BME280;4073;42.626;25.386;2023-04-30T11:02:01;96852.91;;;25.90;32.83
8061;BME280;4073;42.626;25.386;2023-04-30T11:04:27;96828.00;;;25.25;33.92
8061;BME280;4073;42.626;25.386;2023-04-30T11:07:09;96825.13;;;24.81;35.39
8061;BME280;4073;42.626;25.386;2023-04-30T11:12:09;96849.81;;;24.10;33.96
8061;BME280;4073;42.626;25.386;2023-04-30T11:14:39;96855.63;;;24.09;35.93
8061;BME280;4073;42.626;25.386;2023-04-30T11:17:05;96846.41;;;24.65;34.36
8061;BME280;4073;42.626;25.386;2023-04-30T11:19:31;96845.31;;;25.03;32.66
8061;BME280;4073;42.626;25.386;2023-04-30T11:24:53;96838.38;;;28.22;25.89
8061;BME280;4073;42.626;25.386;2023-04-30T11:27:23;96841.09;;;28.43;24.46
8061;BME280;4073;42.626;25.386;2023-04-30T11:29:50;96833.53;;;27.38;26.54
8061;BME280;4073;42.626;25.386;2023-04-30T11:32:18;96823.19;;;26.32;27.78
8061;BME280;4073;42.626;25.386;2023-04-30T11:34:44;96833.31;;;25.11;28.99
8061;BME280;4073;42.626;25.386;2023-04-30T11:37:18;96832.81;;;24.20;30.73
8061;BME280;4073;42.626;25.386;2023-04-30T11:39:45;96833.88;;;23.67;31.59
8061;BME280;4073;42.626;25.386;2023-04-30T11:42:15;96821.09;;;23.30;32.20
8061;BME280;4073;42.626;25.386;2023-04-30T11:44:40;96820.34;;;23.14;33.55
8061;BME280;4073;42.626;25.386;2023-04-30T11:47:06;96823.09;;;23.55;32.33
8061;BME280;4073;42.626;25.386;2023-04-30T11:49:31;96812.34;;;24.07;31.21
8061;BME280;4073;42.626;25.386;2023-04-30T11:51:57;96815.25;;;24.47;30.84
8061;BME280;4073;42.626;25.386;2023-04-30T11:54:23;96814.06;;;24.45;30.06
8061;BME280;4073;42.626;25.386;2023-04-30T11:56:49;96811.22;;;24.12;31.65
8061;BME280;4073;42.626;25.386;2023-04-30T11:59:15;96811.19;;;23.86;31.86
8061;BME280;4073;42.626;25.386;2023-04-30T12:01:42;96804.34;;;23.31;32.09
8061;BME280;4073;42.626;25.386;2023-04-30T12:04:08;96804.22;;;23.24;32.55
8061;BME280;4073;42.626;25.386;2023-04-30T12:06:34;96813.00;;;23.56;31.87
8061;BME280;4073;42.626;25.386;2023-04-30T12:09:01;96806.97;;;23.92;31.16
8061;BME280;4073;42.626;25.386;2023-04-30T12:11:33;96814.00;;;24.15;30.03
8061;BME280;4073;42.626;25.386;2023-04-30T12:14:09;96821.41;;;24.41;29.92
8061;BME280;4073;42.626;25.386;2023-04-30T12:16:38;96811.06;;;24.27;29.52
8061;BME280;4073;42.626;25.386;2023-04-30T12:19:04;96811.22;;;24.12;30.37
8061;BME280;4073;42.626;25.386;2023-04-30T12:21:32;96812.69;;;24.06;31.03
8061;BME280;4073;42.626;25.386;2023-04-30T12:23:58;96806.09;;;23.84;31.54
8061;BME280;4073;42.626;25.386;2023-04-30T12:26:23;96812.44;;;23.69;31.28
8061;BME280;4073;42.626;25.386;2023-04-30T12:28:49;96812.31;;;23.40;32.76
8061;BME280;4073;42.626;25.386;2023-04-30T12:31:18;96806.88;;;23.02;32.51
8061;BME280;4073;42.626;25.386;2023-04-30T12:33:43;96811.91;;;22.81;33.26
8061;BME280;4073;42.626;25.386;2023-04-30T12:36:17;96812.56;;;22.39;34.17
8061;BME280;4073;42.626;25.386;2023-04-30T12:38:42;96795.06;;;22.06;35.71
8061;BME280;4073;42.626;25.386;2023-04-30T12:41:11;96812.28;;;21.94;38.41
8061;BME280;4073;42.626;25.386;2023-04-30T12:43:41;96820.88;;;21.96;39.53
8061;BME280;4073;42.626;25.386;2023-04-30T12:46:06;96794.88;;;21.99;40.92
8061;BME280;4073;42.626;25.386;2023-04-30T12:48:43;96818.34;;;21.88;43.27
8061;BME280;4073;42.626;25.386;2023-04-30T12:51:11;96820.06;;;21.65;47.84
8061;BME280;4073;42.626;25.386;2023-04-30T12:53:45;96829.19;;;21.41;46.47
8061;BME280;4073;42.626;25.386;2023-04-30T12:56:15;96824.75;;;21.21;45.65
8061;BME280;4073;42.626;25.386;2023-04-30T12:58:43;96812.22;;;21.32;44.66
8061;BME280;4073;42.626;25.386;2023-04-30T13:01:20;96806.38;;;21.46;43.76
8061;BME280;4073;42.626;25.386;2023-04-30T13:03:47;96816.06;;;21.74;40.94
8061;BME280;4073;42.626;25.386;2023-04-30T13:06:12;96806.84;;;21.79;39.93
8061;BME280;4073;42.626;25.386;2023-04-30T13:08:38;96821.41;;;21.86;37.83
8061;BME280;4073;42.626;25.386;2023-04-30T13:11:04;96806.25;;;21.85;38.51
8061;BME280;4073;42.626;25.386;2023-04-30T13:13:30;96820.78;;;21.77;42.00
8061;BME280;4073;42.626;25.386;2023-04-30T13:15:55;96798.41;;;21.53;47.55
8061;BME280;4073;42.626;25.386;2023-04-30T13:18:21;96792.59;;;21.39;48.83
8061;BME280;4073;42.626;25.386;2023-04-30T13:20:46;96813.44;;;21.35;50.82
8061;BME280;4073;42.626;25.386;2023-04-30T13:23:12;96816.16;;;21.19;52.53
8061;BME280;4073;42.626;25.386;2023-04-30T13:25:40;96813.81;;;21.33;51.15
8061;BME280;4073;42.626;25.386;2023-04-30T13:28:09;96820.00;;;21.18;46.61